This is the latest recevied weather packets stored in our database for station/object K7NDG. If no packets are shown the sender has not sent any weather packets the latest 10 day(s).
| Time | Temp. | Humidity | Pressure | Rain* | Wind** | Luminosity | Snow |
|---|---|---|---|---|---|---|---|
| 1777497752 | 21.11° C | 55% | 1023.5 hPa | 0 mm | - | 640 W/m² | - |
| 1777497450 | 21.11° C | 55% | 1023.8 hPa | 0 mm | - | 640 W/m² | - |
| 1777497145 | 21.67° C | 54% | 1023.7 hPa | 0 mm | - | 617 W/m² | - |
| 1777496842 | 21.67° C | 52% | 1023.7 hPa | 0 mm | - | 628 W/m² | - |
| 1777494415 | 21.11° C | 57% | 1024 hPa | 0 mm | - | 196 W/m² | - |
| 1777493204 | 20° C | 58% | 1024.4 hPa | 0 mm | - | 372 W/m² | - |
| 1777490776 | 18.89° C | 59% | 1024.4 hPa | 0 mm | - | 650 W/m² | - |
| 1777490169 | 18.33° C | 64% | 1024.8 hPa | 0 mm | - | 368 W/m² | - |
| 1777489867 | 18.33° C | 62% | 1024.9 hPa | 0 mm | - | 273 W/m² | - |
| 1777487143 | 16.11° C | 67% | 1025.4 hPa | 0 mm | - | 410 W/m² | - |
| 1777483196 | 12.78° C | 73% | 1025.7 hPa | 0 mm | - | 377 W/m² | - |
| 1777481378 | 11.67° C | 81% | 1025.8 hPa | 0 mm | - | 161 W/m² | - |
| 1777481074 | 11.11° C | 81% | 1026.1 hPa | 0 mm | - | 160 W/m² | - |
| 1777480771 | 10.56° C | 83% | 1026.1 hPa | 0 mm | - | 187 W/m² | - |
| 1777480467 | 10.56° C | 83% | 1025.9 hPa | 0 mm | - | 372 W/m² | - |
| 1777480163 | 10° C | 84% | 1026.2 hPa | 0 mm | - | 349 W/m² | - |
| 1777479255 | 9.44° C | 87% | 1026.2 hPa | 0 mm | - | 152 W/m² | - |
| 1777478345 | 8.33° C | 89% | 1026.4 hPa | 0 mm | - | 182 W/m² | - |
| 1777477736 | 7.78° C | 90% | 1026.6 hPa | 0 mm | - | 379 W/m² | - |
| 1777477129 | 7.22° C | 91% | 1026.4 hPa | 0 mm | - | 356 W/m² | - |
| 1777476524 | 6.67° C | 92% | 1026.9 hPa | 0 mm | - | 138 W/m² | - |
| 1777476220 | 6.67° C | 92% | 1026.5 hPa | 0 mm | - | 138 W/m² | - |
| 1777475916 | 6.67° C | 93% | 1026.6 hPa | 0 mm | - | 201 W/m² | - |
| 1777475309 | 6.11° C | 93% | 1026.8 hPa | 0 mm | - | 102 W/m² | - |
| 1777475004 | 5.56° C | 93% | 1026.7 hPa | 0 mm | - | 94 W/m² | - |
* Rain latest hour (hover to see other rain measurements)
** Current wind speed in m/s (hover to see current wind gust speed)